sensor_id;sensor_type;location;lat;lon;timestamp;temperature;humidity
57552;DHT22;43379;48.160;14.036;2023-08-17T00:00:11;23.20;99.90
57552;DHT22;43379;48.160;14.036;2023-08-17T00:02:39;23.20;99.90
57552;DHT22;43379;48.160;14.036;2023-08-17T00:05:05;23.20;99.90
57552;DHT22;43379;48.160;14.036;2023-08-17T00:07:32;23.10;99.90
57552;DHT22;43379;48.160;14.036;2023-08-17T00:09:58;23.10;99.90
57552;DHT22;43379;48.160;14.036;2023-08-17T00:12:23;23.00;99.90
57552;DHT22;43379;48.160;14.036;2023-08-17T00:14:50;23.00;99.90
57552;DHT22;43379;48.160;14.036;2023-08-17T00:17:15;23.10;99.90
57552;DHT22;43379;48.160;14.036;2023-08-17T00:19:41;23.10;99.90
57552;DHT22;43379;48.160;14.036;2023-08-17T00:22:07;23.10;99.90
57552;DHT22;43379;48.160;14.036;2023-08-17T00:24:33;23.10;99.90
57552;DHT22;43379;48.160;14.036;2023-08-17T00:26:58;23.10;99.90
57552;DHT22;43379;48.160;14.036;2023-08-17T00:29:24;23.00;99.90
57552;DHT22;43379;48.160;14.036;2023-08-17T00:31:49;22.90;99.90
57552;DHT22;43379;48.160;14.036;2023-08-17T00:34:16;22.90;99.90
57552;DHT22;43379;48.160;14.036;2023-08-17T00:36:42;22.80;99.90
57552;DHT22;43379;48.160;14.036;2023-08-17T00:39:07;22.90;99.90
57552;DHT22;43379;48.160;14.036;2023-08-17T00:41:33;22.80;99.90
57552;DHT22;43379;48.160;14.036;2023-08-17T00:44:00;22.80;99.90
57552;DHT22;43379;48.160;14.036;2023-08-17T00:46:26;22.80;99.90
57552;DHT22;43379;48.160;14.036;2023-08-17T00:48:53;22.70;99.90
57552;DHT22;43379;48.160;14.036;2023-08-17T00:51:24;22.60;99.90
57552;DHT22;43379;48.160;14.036;2023-08-17T00:53:58;22.60;99.90
57552;DHT22;43379;48.160;14.036;2023-08-17T00:56:24;22.50;99.90
57552;DHT22;43379;48.160;14.036;2023-08-17T00:58:50;22.50;99.90
57552;DHT22;43379;48.160;14.036;2023-08-17T01:01:16;22.50;99.90
57552;DHT22;43379;48.160;14.036;2023-08-17T01:03:42;22.50;99.90
57552;DHT22;43379;48.160;14.036;2023-08-17T01:06:08;22.50;99.90
57552;DHT22;43379;48.160;14.036;2023-08-17T01:08:35;22.50;99.90
57552;DHT22;43379;48.160;14.036;2023-08-17T01:11:13;22.60;99.90
57552;DHT22;43379;48.160;14.036;2023-08-17T01:14:11;22.50;99.90
57552;DHT22;43379;48.160;14.036;2023-08-17T01:16:50;22.50;99.90
57552;DHT22;43379;48.160;14.036;2023-08-17T01:19:27;22.50;99.90
57552;DHT22;43379;48.160;14.036;2023-08-17T01:21:57;22.50;99.90
57552;DHT22;43379;48.160;14.036;2023-08-17T01:24:25;22.50;99.90
57552;DHT22;43379;48.160;14.036;2023-08-17T01:26:52;22.50;99.90
57552;DHT22;43379;48.160;14.036;2023-08-17T01:29:18;22.50;99.90
57552;DHT22;43379;48.160;14.036;2023-08-17T01:34:40;22.50;99.90
57552;DHT22;43379;48.160;14.036;2023-08-17T01:37:07;22.40;99.90
57552;DHT22;43379;48.160;14.036;2023-08-17T01:39:37;22.30;99.90
57552;DHT22;43379;48.160;14.036;2023-08-17T01:42:05;22.20;99.90
57552;DHT22;43379;48.160;14.036;2023-08-17T01:44:32;22.10;99.90
57552;DHT22;43379;48.160;14.036;2023-08-17T01:46:58;22.20;99.90
57552;DHT22;43379;48.160;14.036;2023-08-17T01:49:24;22.20;99.90
57552;DHT22;43379;48.160;14.036;2023-08-17T01:51:49;22.20;99.90
57552;DHT22;43379;48.160;14.036;2023-08-17T01:54:15;22.20;99.90
57552;DHT22;43379;48.160;14.036;2023-08-17T01:56:41;22.10;99.90
57552;DHT22;43379;48.160;14.036;2023-08-17T01:59:06;22.20;99.90
57552;DHT22;43379;48.160;14.036;2023-08-17T02:01:32;22.10;99.90
57552;DHT22;43379;48.160;14.036;2023-08-17T02:03:57;22.20;99.90
57552;DHT22;43379;48.160;14.036;2023-08-17T02:06:26;22.10;99.90
57552;DHT22;43379;48.160;14.036;2023-08-17T02:08:52;22.00;99.90
57552;DHT22;43379;48.160;14.036;2023-08-17T02:11:18;22.00;99.90
57552;DHT22;43379;48.160;14.036;2023-08-17T02:13:43;21.90;99.90
57552;DHT22;43379;48.160;14.036;2023-08-17T02:16:09;21.90;99.90
57552;DHT22;43379;48.160;14.036;2023-08-17T02:18:35;21.90;99.90
57552;DHT22;43379;48.160;14.036;2023-08-17T02:21:00;21.90;99.90
57552;DHT22;43379;48.160;14.036;2023-08-17T02:23:26;21.90;99.90
57552;DHT22;43379;48.160;14.036;2023-08-17T02:25:52;22.00;99.90
57552;DHT22;43379;48.160;14.036;2023-08-17T02:28:17;21.90;99.90
57552;DHT22;43379;48.160;14.036;2023-08-17T02:30:43;21.90;99.90
57552;DHT22;43379;48.160;14.036;2023-08-17T02:33:09;21.90;99.90
57552;DHT22;43379;48.160;14.036;2023-08-17T02:35:34;21.90;99.90
57552;DHT22;43379;48.160;14.036;2023-08-17T02:38:00;21.90;99.90
57552;DHT22;43379;48.160;14.036;2023-08-17T02:40:26;21.80;99.90
57552;DHT22;43379;48.160;14.036;2023-08-17T02:42:51;21.80;99.90
57552;DHT22;43379;48.160;14.036;2023-08-17T02:45:17;21.80;99.90
57552;DHT22;43379;48.160;14.036;2023-08-17T02:47:43;21.80;99.90
57552;DHT22;43379;48.160;14.036;2023-08-17T02:50:09;21.80;99.90
57552;DHT22;43379;48.160;14.036;2023-08-17T02:52:35;21.80;99.90
57552;DHT22;43379;48.160;14.036;2023-08-17T02:55:00;21.80;99.90
57552;DHT22;43379;48.160;14.036;2023-08-17T02:57:26;21.70;99.90
57552;DHT22;43379;48.160;14.036;2023-08-17T02:59:52;21.60;99.90
57552;DHT22;43379;48.160;14.036;2023-08-17T03:02:17;21.60;99.90
57552;DHT22;43379;48.160;14.036;2023-08-17T03:04:43;21.50;99.90
57552;DHT22;43379;48.160;14.036;2023-08-17T03:07:08;21.50;99.90
57552;DHT22;43379;48.160;14.036;2023-08-17T03:09:34;21.60;99.90
57552;DHT22;43379;48.160;14.036;2023-08-17T03:12:00;21.60;99.90
57552;DHT22;43379;48.160;14.036;2023-08-17T03:14:25;21.50;99.90
57552;DHT22;43379;48.160;14.036;2023-08-17T03:16:51;21.50;99.90
57552;DHT22;43379;48.160;14.036;2023-08-17T03:19:16;21.60;99.90
57552;DHT22;43379;48.160;14.036;2023-08-17T03:21:43;21.60;99.90
57552;DHT22;43379;48.160;14.036;2023-08-17T03:24:08;21.50;99.90
57552;DHT22;43379;48.160;14.036;2023-08-17T03:26:34;21.40;99.90
57552;DHT22;43379;48.160;14.036;2023-08-17T03:29:00;21.40;99.90
57552;DHT22;43379;48.160;14.036;2023-08-17T03:31:25;21.40;99.90
57552;DHT22;43379;48.160;14.036;2023-08-17T03:33:51;21.40;99.90
57552;DHT22;43379;48.160;14.036;2023-08-17T03:36:16;21.40;99.90
57552;DHT22;43379;48.160;14.036;2023-08-17T03:38:42;21.40;99.90
57552;DHT22;43379;48.160;14.036;2023-08-17T03:41:08;21.40;99.90
57552;DHT22;43379;48.160;14.036;2023-08-17T03:43:33;21.40;99.90
57552;DHT22;43379;48.160;14.036;2023-08-17T03:45:59;21.40;99.90
57552;DHT22;43379;48.160;14.036;2023-08-17T03:48:25;21.40;99.90
57552;DHT22;43379;48.160;14.036;2023-08-17T03:50:52;21.40;99.90
57552;DHT22;43379;48.160;14.036;2023-08-17T03:53:18;21.40;99.90
57552;DHT22;43379;48.160;14.036;2023-08-17T03:55:50;21.30;99.90
57552;DHT22;43379;48.160;14.036;2023-08-17T03:58:17;21.30;99.90
57552;DHT22;43379;48.160;14.036;2023-08-17T04:00:51;21.30;99.90
57552;DHT22;43379;48.160;14.036;2023-08-17T04:03:18;21.30;99.90
57552;DHT22;43379;48.160;14.036;2023-08-17T04:05:44;21.30;99.90
57552;DHT22;43379;48.160;14.036;2023-08-17T04:08:09;21.30;99.90
57552;DHT22;43379;48.160;14.036;2023-08-17T04:10:35;21.20;99.90
57552;DHT22;43379;48.160;14.036;2023-08-17T04:13:01;21.10;99.90
57552;DHT22;43379;48.160;14.036;2023-08-17T04:15:26;21.10;99.90
57552;DHT22;43379;48.160;14.036;2023-08-17T04:17:52;21.10;99.90
57552;DHT22;43379;48.160;14.036;2023-08-17T04:20:18;21.10;99.90
57552;DHT22;43379;48.160;14.036;2023-08-17T04:22:44;21.10;99.90
57552;DHT22;43379;48.160;14.036;2023-08-17T04:25:10;21.20;99.90
57552;DHT22;43379;48.160;14.036;2023-08-17T04:27:36;21.20;99.90
57552;DHT22;43379;48.160;14.036;2023-08-17T04:30:02;21.30;99.90
57552;DHT22;43379;48.160;14.036;2023-08-17T04:32:28;21.20;99.90
57552;DHT22;43379;48.160;14.036;2023-08-17T04:34:53;21.20;99.90
57552;DHT22;43379;48.160;14.036;2023-08-17T04:37:19;21.20;99.90
57552;DHT22;43379;48.160;14.036;2023-08-17T04:39:45;21.20;99.90
57552;DHT22;43379;48.160;14.036;2023-08-17T04:42:13;21.30;99.90
57552;DHT22;43379;48.160;14.036;2023-08-17T04:44:39;21.40;99.90
57552;DHT22;43379;48.160;14.036;2023-08-17T04:47:05;21.50;99.90
57552;DHT22;43379;48.160;14.036;2023-08-17T04:49:31;21.60;99.90
57552;DHT22;43379;48.160;14.036;2023-08-17T04:51:56;21.60;99.90
57552;DHT22;43379;48.160;14.036;2023-08-17T04:54:22;21.70;99.90
57552;DHT22;43379;48.160;14.036;2023-08-17T04:56:48;21.80;99.90
57552;DHT22;43379;48.160;14.036;2023-08-17T04:59:14;21.80;99.90
57552;DHT22;43379;48.160;14.036;2023-08-17T05:01:39;21.90;99.90
57552;DHT22;43379;48.160;14.036;2023-08-17T05:04:05;22.00;99.90
57552;DHT22;43379;48.160;14.036;2023-08-17T05:06:31;22.00;99.90
57552;DHT22;43379;48.160;14.036;2023-08-17T05:08:57;22.20;99.90
57552;DHT22;43379;48.160;14.036;2023-08-17T05:11:23;22.30;99.90
57552;DHT22;43379;48.160;14.036;2023-08-17T05:13:49;22.40;99.90
57552;DHT22;43379;48.160;14.036;2023-08-17T05:16:14;22.50;99.90
57552;DHT22;43379;48.160;14.036;2023-08-17T05:18:40;22.60;99.90
57552;DHT22;43379;48.160;14.036;2023-08-17T05:21:06;22.80;99.90
57552;DHT22;43379;48.160;14.036;2023-08-17T05:23:32;22.90;99.90
57552;DHT22;43379;48.160;14.036;2023-08-17T05:25:57;23.00;99.90
57552;DHT22;43379;48.160;14.036;2023-08-17T05:28:23;23.20;99.90
57552;DHT22;43379;48.160;14.036;2023-08-17T05:30:49;23.30;99.90
57552;DHT22;43379;48.160;14.036;2023-08-17T05:33:15;23.50;99.90
57552;DHT22;43379;48.160;14.036;2023-08-17T05:35:40;23.70;99.90
57552;DHT22;43379;48.160;14.036;2023-08-17T05:38:08;24.10;99.90
57552;DHT22;43379;48.160;14.036;2023-08-17T05:40:33;24.60;99.90
57552;DHT22;43379;48.160;14.036;2023-08-17T05:42:59;25.30;99.90
57552;DHT22;43379;48.160;14.036;2023-08-17T05:45:25;26.00;99.90
57552;DHT22;43379;48.160;14.036;2023-08-17T05:47:52;26.80;99.90
57552;DHT22;43379;48.160;14.036;2023-08-17T05:50:18;27.60;99.90
57552;DHT22;43379;48.160;14.036;2023-08-17T05:52:43;28.40;99.90
57552;DHT22;43379;48.160;14.036;2023-08-17T05:55:09;29.10;99.90
57552;DHT22;43379;48.160;14.036;2023-08-17T05:57:35;29.70;99.90
57552;DHT22;43379;48.160;14.036;2023-08-17T06:00:00;30.20;99.90
57552;DHT22;43379;48.160;14.036;2023-08-17T06:02:26;30.60;99.90
57552;DHT22;43379;48.160;14.036;2023-08-17T06:04:52;31.20;99.90
57552;DHT22;43379;48.160;14.036;2023-08-17T06:07:17;31.70;99.00
57552;DHT22;43379;48.160;14.036;2023-08-17T06:09:43;32.00;98.30
57552;DHT22;43379;48.160;14.036;2023-08-17T06:12:08;32.10;97.20
57552;DHT22;43379;48.160;14.036;2023-08-17T06:14:34;32.40;97.00
57552;DHT22;43379;48.160;14.036;2023-08-17T06:17:00;32.20;97.30
57552;DHT22;43379;48.160;14.036;2023-08-17T06:19:26;32.50;96.50
57552;DHT22;43379;48.160;14.036;2023-08-17T06:21:52;32.80;96.00
57552;DHT22;43379;48.160;14.036;2023-08-17T06:24:18;33.20;95.70
57552;DHT22;43379;48.160;14.036;2023-08-17T06:26:44;33.40;95.00
57552;DHT22;43379;48.160;14.036;2023-08-17T06:29:11;33.50;94.90
57552;DHT22;43379;48.160;14.036;2023-08-17T06:31:36;34.00;93.60
57552;DHT22;43379;48.160;14.036;2023-08-17T06:34:02;34.10;93.20
57552;DHT22;43379;48.160;14.036;2023-08-17T06:36:31;34.10;92.30
57552;DHT22;43379;48.160;14.036;2023-08-17T06:38:57;33.90;92.90
57552;DHT22;43379;48.160;14.036;2023-08-17T06:41:23;33.80;92.00
57552;DHT22;43379;48.160;14.036;2023-08-17T06:43:50;33.50;93.00
57552;DHT22;43379;48.160;14.036;2023-08-17T06:46:16;33.50;93.00
57552;DHT22;43379;48.160;14.036;2023-08-17T06:48:43;33.20;93.00
57552;DHT22;43379;48.160;14.036;2023-08-17T06:51:08;33.10;93.40
57552;DHT22;43379;48.160;14.036;2023-08-17T06:53:34;32.80;93.50
57552;DHT22;43379;48.160;14.036;2023-08-17T06:56:00;32.50;94.00
57552;DHT22;43379;48.160;14.036;2023-08-17T06:58:25;32.30;93.50
57552;DHT22;43379;48.160;14.036;2023-08-17T07:00:51;32.10;93.80
57552;DHT22;43379;48.160;14.036;2023-08-17T07:03:17;31.90;94.30
57552;DHT22;43379;48.160;14.036;2023-08-17T07:05:43;31.90;94.30
57552;DHT22;43379;48.160;14.036;2023-08-17T07:08:09;31.80;94.60
57552;DHT22;43379;48.160;14.036;2023-08-17T07:10:34;31.70;95.20
57552;DHT22;43379;48.160;14.036;2023-08-17T07:13:00;31.80;94.10
57552;DHT22;43379;48.160;14.036;2023-08-17T07:15:29;32.00;94.00
57552;DHT22;43379;48.160;14.036;2023-08-17T07:17:55;31.90;94.50
57552;DHT22;43379;48.160;14.036;2023-08-17T07:20:21;31.90;94.60
57552;DHT22;43379;48.160;14.036;2023-08-17T07:22:46;32.10;94.10
57552;DHT22;43379;48.160;14.036;2023-08-17T07:25:12;32.10;94.00
57552;DHT22;43379;48.160;14.036;2023-08-17T07:27:38;32.20;93.30
57552;DHT22;43379;48.160;14.036;2023-08-17T07:30:04;31.80;93.30
57552;DHT22;43379;48.160;14.036;2023-08-17T07:32:30;31.70;94.20
57552;DHT22;43379;48.160;14.036;2023-08-17T07:34:56;31.80;93.70
57552;DHT22;43379;48.160;14.036;2023-08-17T07:37:21;31.50;93.90
57552;DHT22;43379;48.160;14.036;2023-08-17T07:39:47;31.30;94.00
57552;DHT22;43379;48.160;14.036;2023-08-17T07:42:13;31.30;94.70
57552;DHT22;43379;48.160;14.036;2023-08-17T07:44:39;31.40;94.60
57552;DHT22;43379;48.160;14.036;2023-08-17T07:47:05;31.40;94.90
57552;DHT22;43379;48.160;14.036;2023-08-17T07:49:31;31.70;95.00
57552;DHT22;43379;48.160;14.036;2023-08-17T07:51:56;31.70;94.20
57552;DHT22;43379;48.160;14.036;2023-08-17T07:54:22;31.60;94.20
57552;DHT22;43379;48.160;14.036;2023-08-17T07:56:48;31.50;94.00
57552;DHT22;43379;48.160;14.036;2023-08-17T07:59:14;31.70;93.80
57552;DHT22;43379;48.160;14.036;2023-08-17T08:01:40;31.50;93.90
57552;DHT22;43379;48.160;14.036;2023-08-17T08:04:07;31.60;94.50
57552;DHT22;43379;48.160;14.036;2023-08-17T08:06:33;31.60;94.50
57552;DHT22;43379;48.160;14.036;2023-08-17T08:08:58;31.70;94.00
57552;DHT22;43379;48.160;14.036;2023-08-17T08:11:25;31.60;94.00
57552;DHT22;43379;48.160;14.036;2023-08-17T08:13:53;31.80;94.20
57552;DHT22;43379;48.160;14.036;2023-08-17T08:16:18;31.80;93.80
57552;DHT22;43379;48.160;14.036;2023-08-17T08:18:44;31.90;94.20
57552;DHT22;43379;48.160;14.036;2023-08-17T08:21:09;32.30;94.60
57552;DHT22;43379;48.160;14.036;2023-08-17T08:23:35;32.50;93.40
57552;DHT22;43379;48.160;14.036;2023-08-17T08:26:00;32.50;93.30
57552;DHT22;43379;48.160;14.036;2023-08-17T08:28:26;32.50;93.10
57552;DHT22;43379;48.160;14.036;2023-08-17T08:30:52;32.70;94.00
57552;DHT22;43379;48.160;14.036;2023-08-17T08:33:18;32.70;93.90
57552;DHT22;43379;48.160;14.036;2023-08-17T08:35:44;33.00;93.60
57552;DHT22;43379;48.160;14.036;2023-08-17T08:38:11;32.90;92.30
57552;DHT22;43379;48.160;14.036;2023-08-17T08:40:37;32.80;92.80
57552;DHT22;43379;48.160;14.036;2023-08-17T08:43:05;32.90;92.60
57552;DHT22;43379;48.160;14.036;2023-08-17T08:45:35;32.90;93.30
57552;DHT22;43379;48.160;14.036;2023-08-17T08:48:02;33.20;93.40
57552;DHT22;43379;48.160;14.036;2023-08-17T08:50:31;33.30;92.90
57552;DHT22;43379;48.160;14.036;2023-08-17T08:53:02;33.30;91.70
57552;DHT22;43379;48.160;14.036;2023-08-17T08:55:34;33.00;91.70
57552;DHT22;43379;48.160;14.036;2023-08-17T08:58:03;33.10;92.80
57552;DHT22;43379;48.160;14.036;2023-08-17T09:00:29;33.40;92.70
57552;DHT22;43379;48.160;14.036;2023-08-17T09:02:55;33.50;92.60
57552;DHT22;43379;48.160;14.036;2023-08-17T09:05:22;33.80;92.90
57552;DHT22;43379;48.160;14.036;2023-08-17T09:07:49;33.80;91.60
57552;DHT22;43379;48.160;14.036;2023-08-17T09:10:15;33.90;91.40
57552;DHT22;43379;48.160;14.036;2023-08-17T09:12:45;33.90;92.10
57552;DHT22;43379;48.160;14.036;2023-08-17T09:15:10;33.90;91.90
57552;DHT22;43379;48.160;14.036;2023-08-17T09:17:37;33.90;91.30
57552;DHT22;43379;48.160;14.036;2023-08-17T09:20:03;33.90;90.70
57552;DHT22;43379;48.160;14.036;2023-08-17T09:22:39;33.80;91.30
57552;DHT22;43379;48.160;14.036;2023-08-17T09:25:06;33.70;91.20
57552;DHT22;43379;48.160;14.036;2023-08-17T09:27:32;33.70;91.20
57552;DHT22;43379;48.160;14.036;2023-08-17T09:30:02;33.70;91.60
57552;DHT22;43379;48.160;14.036;2023-08-17T09:32:33;33.90;91.90
57552;DHT22;43379;48.160;14.036;2023-08-17T09:35:02;34.00;90.90
57552;DHT22;43379;48.160;14.036;2023-08-17T09:37:29;33.90;91.20
57552;DHT22;43379;48.160;14.036;2023-08-17T09:39:55;34.00;91.60
57552;DHT22;43379;48.160;14.036;2023-08-17T09:42:21;34.00;90.70
57552;DHT22;43379;48.160;14.036;2023-08-17T09:44:49;34.10;90.80
57552;DHT22;43379;48.160;14.036;2023-08-17T09:47:16;33.90;91.20
57552;DHT22;43379;48.160;14.036;2023-08-17T09:49:48;34.00;90.50
57552;DHT22;43379;48.160;14.036;2023-08-17T09:52:14;34.00;90.40
57552;DHT22;43379;48.160;14.036;2023-08-17T09:54:40;34.10;90.50
57552;DHT22;43379;48.160;14.036;2023-08-17T09:57:07;34.10;90.90
57552;DHT22;43379;48.160;14.036;2023-08-17T09:59:33;34.10;89.80
57552;DHT22;43379;48.160;14.036;2023-08-17T10:01:59;33.90;90.20
57552;DHT22;43379;48.160;14.036;2023-08-17T10:04:26;33.80;90.40
57552;DHT22;43379;48.160;14.036;2023-08-17T10:07:02;33.70;91.10
57552;DHT22;43379;48.160;14.036;2023-08-17T10:09:36;33.70;90.60
57552;DHT22;43379;48.160;14.036;2023-08-17T10:12:14;33.70;90.50
57552;DHT22;43379;48.160;14.036;2023-08-17T10:14:46;33.60;90.60
57552;DHT22;43379;48.160;14.036;2023-08-17T10:17:16;33.70;92.00
57552;DHT22;43379;48.160;14.036;2023-08-17T10:19:56;33.90;91.10
57552;DHT22;43379;48.160;14.036;2023-08-17T10:22:33;34.00;90.00
57552;DHT22;43379;48.160;14.036;2023-08-17T10:25:00;34.00;90.20
57552;DHT22;43379;48.160;14.036;2023-08-17T10:27:27;34.00;91.20
57552;DHT22;43379;48.160;14.036;2023-08-17T10:29:53;34.00;90.20
57552;DHT22;43379;48.160;14.036;2023-08-17T10:32:21;33.90;90.30
57552;DHT22;43379;48.160;14.036;2023-08-17T10:34:48;33.90;91.90
57552;DHT22;43379;48.160;14.036;2023-08-17T10:37:14;33.90;90.50
57552;DHT22;43379;48.160;14.036;2023-08-17T10:39:45;33.90;90.80
57552;DHT22;43379;48.160;14.036;2023-08-17T10:42:12;33.70;89.90
57552;DHT22;43379;48.160;14.036;2023-08-17T10:44:45;33.60;90.40
57552;DHT22;43379;48.160;14.036;2023-08-17T10:47:31;33.40;90.50
57552;DHT22;43379;48.160;14.036;2023-08-17T10:50:06;33.40;91.10
57552;DHT22;43379;48.160;14.036;2023-08-17T10:52:44;33.50;91.90
57552;DHT22;43379;48.160;14.036;2023-08-17T10:55:09;33.50;91.60
57552;DHT22;43379;48.160;14.036;2023-08-17T10:57:42;33.60;91.80
57552;DHT22;43379;48.160;14.036;2023-08-17T11:02:37;33.70;92.10
57552;DHT22;43379;48.160;14.036;2023-08-17T11:05:03;33.70;91.20
57552;DHT22;43379;48.160;14.036;2023-08-17T11:07:43;33.50;88.90
57552;DHT22;43379;48.160;14.036;2023-08-17T11:10:29;33.30;90.40
57552;DHT22;43379;48.160;14.036;2023-08-17T11:12:56;33.30;91.80
57552;DHT22;43379;48.160;14.036;2023-08-17T11:15:45;33.30;91.50
57552;DHT22;43379;48.160;14.036;2023-08-17T11:18:13;33.40;91.80
57552;DHT22;43379;48.160;14.036;2023-08-17T11:20:41;33.50;92.40
57552;DHT22;43379;48.160;14.036;2023-08-17T11:23:08;33.50;91.70
57552;DHT22;43379;48.160;14.036;2023-08-17T11:25:35;33.50;91.90
57552;DHT22;43379;48.160;14.036;2023-08-17T11:28:01;33.50;90.70
57552;DHT22;43379;48.160;14.036;2023-08-17T11:30:28;33.20;90.20
57552;DHT22;43379;48.160;14.036;2023-08-17T11:32:56;32.90;91.00
57552;DHT22;43379;48.160;14.036;2023-08-17T11:35:22;32.70;91.10
57552;DHT22;43379;48.160;14.036;2023-08-17T11:37:48;32.70;92.00
57552;DHT22;43379;48.160;14.036;2023-08-17T11:40:15;32.80;91.90
57552;DHT22;43379;48.160;14.036;2023-08-17T11:42:42;32.70;91.60
57552;DHT22;43379;48.160;14.036;2023-08-17T11:45:08;32.70;91.60
57552;DHT22;43379;48.160;14.036;2023-08-17T11:47:38;32.70;92.20
57552;DHT22;43379;48.160;14.036;2023-08-17T11:50:05;32.60;92.40
57552;DHT22;43379;48.160;14.036;2023-08-17T11:52:31;32.60;92.10
57552;DHT22;43379;48.160;14.036;2023-08-17T11:54:58;32.50;91.40
57552;DHT22;43379;48.160;14.036;2023-08-17T11:57:25;32.40;92.20
57552;DHT22;43379;48.160;14.036;2023-08-17T11:59:55;32.40;92.80
57552;DHT22;43379;48.160;14.036;2023-08-17T12:02:23;32.40;92.90
57552;DHT22;43379;48.160;14.036;2023-08-17T12:04:50;32.40;92.40
57552;DHT22;43379;48.160;14.036;2023-08-17T12:07:16;32.40;92.20
57552;DHT22;43379;48.160;14.036;2023-08-17T12:09:43;32.30;91.30
57552;DHT22;43379;48.160;14.036;2023-08-17T12:12:10;32.20;91.30
57552;DHT22;43379;48.160;14.036;2023-08-17T12:14:36;32.00;91.40
57552;DHT22;43379;48.160;14.036;2023-08-17T12:17:02;31.80;91.60
57552;DHT22;43379;48.160;14.036;2023-08-17T12:19:29;31.70;91.70
57552;DHT22;43379;48.160;14.036;2023-08-17T12:21:56;31.70;92.80
57552;DHT22;43379;48.160;14.036;2023-08-17T12:24:26;31.70;92.20
57552;DHT22;43379;48.160;14.036;2023-08-17T12:26:52;31.80;93.30
57552;DHT22;43379;48.160;14.036;2023-08-17T12:29:22;31.90;93.90
57552;DHT22;43379;48.160;14.036;2023-08-17T12:31:48;32.00;93.70
57552;DHT22;43379;48.160;14.036;2023-08-17T12:34:13;32.10;93.60
57552;DHT22;43379;48.160;14.036;2023-08-17T12:36:39;32.20;94.40
57552;DHT22;43379;48.160;14.036;2023-08-17T12:39:08;32.10;92.10
57552;DHT22;43379;48.160;14.036;2023-08-17T12:41:33;32.00;92.00
57552;DHT22;43379;48.160;14.036;2023-08-17T12:43:59;31.90;92.90
57552;DHT22;43379;48.160;14.036;2023-08-17T12:46:25;31.80;92.00
57552;DHT22;43379;48.160;14.036;2023-08-17T12:48:51;31.70;92.00
57552;DHT22;43379;48.160;14.036;2023-08-17T12:51:16;31.70;92.00
57552;DHT22;43379;48.160;14.036;2023-08-17T12:53:42;31.60;92.10
57552;DHT22;43379;48.160;14.036;2023-08-17T12:56:08;31.60;92.60
57552;DHT22;43379;48.160;14.036;2023-08-17T12:58:34;31.60;92.30
57552;DHT22;43379;48.160;14.036;2023-08-17T13:00:59;31.60;92.40
57552;DHT22;43379;48.160;14.036;2023-08-17T13:03:25;31.60;92.50
57552;DHT22;43379;48.160;14.036;2023-08-17T13:05:51;31.50;92.30
57552;DHT22;43379;48.160;14.036;2023-08-17T13:08:17;31.40;92.30
57552;DHT22;43379;48.160;14.036;2023-08-17T13:10:42;31.40;92.40
57552;DHT22;43379;48.160;14.036;2023-08-17T13:13:08;31.40;92.40
57552;DHT22;43379;48.160;14.036;2023-08-17T13:15:34;31.30;91.80
57552;DHT22;43379;48.160;14.036;2023-08-17T13:17:59;31.20;91.00
57552;DHT22;43379;48.160;14.036;2023-08-17T13:20:26;31.10;91.00
57552;DHT22;43379;48.160;14.036;2023-08-17T13:22:52;31.10;91.00
57552;DHT22;43379;48.160;14.036;2023-08-17T13:25:17;31.00;91.30
57552;DHT22;43379;48.160;14.036;2023-08-17T13:27:43;31.10;92.60
57552;DHT22;43379;48.160;14.036;2023-08-17T13:30:09;31.10;91.60
57552;DHT22;43379;48.160;14.036;2023-08-17T13:32:35;31.10;91.40
57552;DHT22;43379;48.160;14.036;2023-08-17T13:35:02;31.10;91.60
57552;DHT22;43379;48.160;14.036;2023-08-17T13:37:28;31.10;92.60
57552;DHT22;43379;48.160;14.036;2023-08-17T13:39:54;31.20;93.20
57552;DHT22;43379;48.160;14.036;2023-08-17T13:42:20;31.30;93.00
57552;DHT22;43379;48.160;14.036;2023-08-17T13:44:45;31.30;91.80
57552;DHT22;43379;48.160;14.036;2023-08-17T13:47:12;31.20;90.70
57552;DHT22;43379;48.160;14.036;2023-08-17T13:49:37;31.10;90.50
57552;DHT22;43379;48.160;14.036;2023-08-17T13:52:03;31.10;90.30
57552;DHT22;43379;48.160;14.036;2023-08-17T13:54:29;31.00;90.70
57552;DHT22;43379;48.160;14.036;2023-08-17T13:56:55;31.10;91.20
57552;DHT22;43379;48.160;14.036;2023-08-17T13:59:20;31.00;90.60
57552;DHT22;43379;48.160;14.036;2023-08-17T14:01:46;30.90;89.90
57552;DHT22;43379;48.160;14.036;2023-08-17T14:04:12;31.00;90.50
57552;DHT22;43379;48.160;14.036;2023-08-17T14:06:38;31.00;90.80
57552;DHT22;43379;48.160;14.036;2023-08-17T14:09:04;30.90;90.10
57552;DHT22;43379;48.160;14.036;2023-08-17T14:11:30;30.90;90.60
57552;DHT22;43379;48.160;14.036;2023-08-17T14:13:56;31.00;91.40
57552;DHT22;43379;48.160;14.036;2023-08-17T14:16:22;30.90;91.20
57552;DHT22;43379;48.160;14.036;2023-08-17T14:18:48;30.90;91.00
57552;DHT22;43379;48.160;14.036;2023-08-17T14:21:13;30.90;91.60
57552;DHT22;43379;48.160;14.036;2023-08-17T14:23:39;30.80;90.50
57552;DHT22;43379;48.160;14.036;2023-08-17T14:26:05;30.70;90.50
57552;DHT22;43379;48.160;14.036;2023-08-17T14:28:31;30.70;90.50
57552;DHT22;43379;48.160;14.036;2023-08-17T14:30:57;30.70;90.10
57552;DHT22;43379;48.160;14.036;2023-08-17T14:33:22;30.60;90.20
57552;DHT22;43379;48.160;14.036;2023-08-17T14:35:49;30.60;90.50
57552;DHT22;43379;48.160;14.036;2023-08-17T14:38:16;30.60;91.00
57552;DHT22;43379;48.160;14.036;2023-08-17T14:40:43;30.60;90.90
57552;DHT22;43379;48.160;14.036;2023-08-17T14:43:10;30.60;91.00
57552;DHT22;43379;48.160;14.036;2023-08-17T14:45:37;30.60;91.30
57552;DHT22;43379;48.160;14.036;2023-08-17T14:48:03;30.60;91.50
57552;DHT22;43379;48.160;14.036;2023-08-17T14:50:29;30.60;91.20
57552;DHT22;43379;48.160;14.036;2023-08-17T14:52:54;30.50;91.30
57552;DHT22;43379;48.160;14.036;2023-08-17T14:55:20;30.50;91.20
57552;DHT22;43379;48.160;14.036;2023-08-17T14:57:45;30.60;91.40
57552;DHT22;43379;48.160;14.036;2023-08-17T15:00:12;30.60;91.20
57552;DHT22;43379;48.160;14.036;2023-08-17T15:02:38;30.50;91.00
57552;DHT22;43379;48.160;14.036;2023-08-17T15:05:05;30.40;91.30
57552;DHT22;43379;48.160;14.036;2023-08-17T15:07:31;30.40;91.60
57552;DHT22;43379;48.160;14.036;2023-08-17T15:09:57;30.40;91.50
57552;DHT22;43379;48.160;14.036;2023-08-17T15:12:23;30.40;91.90
57552;DHT22;43379;48.160;14.036;2023-08-17T15:14:48;30.40;91.80
57552;DHT22;43379;48.160;14.036;2023-08-17T15:17:14;30.30;91.40